Time;durP1;ratioP1;P1;durP2;ratioP2;P2;SDS_P1;SDS_P2;PMS_P1;PMS_P2;Temp;Humidity;BMP_temperature;BMP_pressure;BME280_temperature;BME280_humidity;BME280_pressure;Samples;Min_cycle;Max_cycle;Signal;HPM_P1;HPM_P2
2022/09/28 00:01:22;;;;;;;1.67;0.80;;;9.60;99.90;;;;;;4977461;28;20188;-88
2022/09/28 00:03:51;;;;;;;3.70;1.03;;;9.70;99.90;;;;;;4977514;28;20207;-88
2022/09/28 00:06:21;;;;;;;3.30;0.80;;;9.60;99.90;;;;;;4977665;28;20207;-87
2022/09/28 00:08:48;;;;;;;2.10;0.70;;;9.70;99.90;;;;;;4993567;28;20175;-88
2022/09/28 00:11:16;;;;;;;1.37;0.90;;;9.70;99.90;;;;;;4977407;28;20184;-88
2022/09/28 00:13:44;;;;;;;1.50;0.90;;;9.70;99.90;;;;;;4977463;28;20198;-87
2022/09/28 00:16:17;;;;;;;2.03;0.97;;;9.70;99.90;;;;;;5010362;28;20261;-87
2022/09/28 00:18:44;;;;;;;1.47;0.90;;;9.70;99.90;;;;;;4993801;28;20183;-87
2022/09/28 00:21:13;;;;;;;1.50;0.80;;;9.70;99.90;;;;;;4993414;28;20288;-88
2022/09/28 00:26:28;;;;;;;2.30;0.80;;;9.60;99.90;;;;;;4993044;28;20199;-88
2022/09/28 00:28:59;;;;;;;2.23;1.20;;;9.60;99.90;;;;;;4977248;28;20179;-88
2022/09/28 00:31:31;;;;;;;2.40;0.80;;;9.60;99.90;;;;;;4977317;28;20198;-87
2022/09/28 00:33:59;;;;;;;3.23;1.10;;;9.70;99.90;;;;;;4977017;28;20237;-88
2022/09/28 00:36:27;;;;;;;1.20;0.80;;;9.70;99.90;;;;;;5014304;28;20237;-88
2022/09/28 00:38:55;;;;;;;2.83;1.03;;;9.70;99.90;;;;;;4982227;28;20255;-88
2022/09/28 00:41:23;;;;;;;2.20;1.10;;;9.70;99.90;;;;;;4957968;28;20184;-88
2022/09/28 00:43:49;;;;;;;2.60;0.80;;;9.70;99.90;;;;;;4983652;28;20203;-87
2022/09/28 00:46:29;;;;;;;2.30;1.00;;;9.70;99.90;;;;;;4993489;28;20245;-87
2022/09/28 00:49:02;;;;;;;1.47;0.93;;;9.80;99.90;;;;;;4973647;28;20259;-88
2022/09/28 00:51:30;;;;;;;2.13;1.20;;;9.70;99.90;;;;;;4957928;28;20172;-87
2022/09/28 00:53:59;;;;;;;3.03;1.00;;;9.70;99.90;;;;;;4967061;28;20183;-88
2022/09/28 00:56:28;;;;;;;4.37;0.93;;;9.70;99.90;;;;;;4976958;28;20238;-88
2022/09/28 00:58:56;;;;;;;4.17;1.13;;;9.80;99.90;;;;;;4973203;28;20191;-88
2022/09/28 01:01:22;;;;;;;4.20;1.57;;;9.80;99.90;;;;;;4973827;28;20207;-86
2022/09/28 01:03:48;;;;;;;4.97;1.30;;;9.80;99.90;;;;;;4976858;28;20607;-88
2022/09/28 01:06:26;;;;;;;4.83;1.13;;;9.80;99.90;;;;;;4977014;28;20203;-87
2022/09/28 01:08:57;;;;;;;3.03;1.10;;;9.80;99.90;;;;;;4976983;28;20195;-87
2022/09/28 01:11:24;;;;;;;3.67;1.13;;;9.80;99.90;;;;;;4976629;28;20183;-87
2022/09/28 01:13:54;;;;;;;1.73;1.00;;;9.80;99.90;;;;;;4977000;28;20195;-87
2022/09/28 01:16:39;;;;;;;4.83;1.40;;;9.80;99.90;;;;;;5009146;28;20210;-87
2022/09/28 01:19:37;;;;;;;2.60;1.30;;;9.80;99.90;;;;;;4992069;28;20183;-87
2022/09/28 01:22:26;;;;;;;2.40;1.10;;;9.80;99.90;;;;;;4993189;28;20245;-87
2022/09/28 01:25:12;;;;;;;5.03;1.40;;;9.80;99.90;;;;;;4976430;28;20180;-87
2022/09/28 01:27:40;;;;;;;2.53;1.33;;;9.90;99.90;;;;;;4976275;28;20198;-87
2022/09/28 01:30:07;;;;;;;3.70;1.60;;;9.90;99.90;;;;;;4992992;28;20183;-87
2022/09/28 01:32:53;;;;;;;3.97;1.20;;;9.90;99.90;;;;;;5009437;28;20314;-87
2022/09/28 01:35:34;;;;;;;5.87;1.13;;;9.90;99.90;;;;;;5005553;28;20211;-87
2022/09/28 01:38:09;;;;;;;3.43;1.20;;;9.90;99.90;;;;;;4957126;28;20187;-87
2022/09/28 01:40:36;;;;;;;2.27;1.37;;;9.90;99.90;;;;;;4976627;28;20187;-87
2022/09/28 01:43:10;;;;;;;3.07;1.30;;;9.90;99.90;;;;;;4976642;28;20235;-88
2022/09/28 01:45:55;;;;;;;2.77;1.10;;;9.90;99.90;;;;;;4974655;28;20207;-87
2022/09/28 01:48:42;;;;;;;3.80;1.03;;;9.90;99.90;;;;;;4993284;28;20199;-87
2022/09/28 01:51:16;;;;;;;2.83;1.20;;;9.90;99.90;;;;;;5009952;28;20190;-87
2022/09/28 01:53:48;;;;;;;2.13;1.10;;;9.90;99.90;;;;;;4980225;28;20233;-87
2022/09/28 01:56:27;;;;;;;5.57;1.50;;;9.90;99.90;;;;;;4980307;28;20203;-87
2022/09/28 01:59:02;;;;;;;3.07;1.23;;;9.90;99.90;;;;;;4980222;28;20186;-87
2022/09/28 02:01:56;;;;;;;4.47;1.40;;;9.90;99.90;;;;;;4979805;28;20689;-87
2022/09/28 02:04:41;;;;;;;3.13;1.40;;;9.90;99.90;;;;;;4975502;28;20234;-87
2022/09/28 02:07:20;;;;;;;5.07;1.77;;;9.90;99.90;;;;;;4979939;28;20256;-87
2022/09/28 02:09:54;;;;;;;8.63;2.00;;;9.90;99.90;;;;;;4979822;28;20179;-87
2022/09/28 02:12:25;;;;;;;4.63;1.67;;;9.90;99.90;;;;;;4979967;28;20799;-87
2022/09/28 02:14:58;;;;;;;3.83;1.30;;;9.90;99.90;;;;;;4976078;28;20183;-87
2022/09/28 02:17:24;;;;;;;3.07;1.00;;;9.90;99.90;;;;;;5007109;28;20579;-87
2022/09/28 02:19:50;;;;;;;2.70;1.23;;;9.90;99.90;;;;;;4999389;28;20175;-87
2022/09/28 02:22:26;;;;;;;3.07;1.13;;;9.90;99.90;;;;;;4999586;28;20178;-87
2022/09/28 02:25:01;;;;;;;4.20;1.27;;;9.90;99.90;;;;;;5028273;28;20182;-87
2022/09/28 02:27:38;;;;;;;2.63;1.20;;;9.90;99.90;;;;;;4980303;28;20182;-87
2022/09/28 02:30:06;;;;;;;2.60;1.30;;;9.90;99.90;;;;;;4977759;28;20183;-87
2022/09/28 02:32:39;;;;;;;3.40;1.17;;;9.90;99.90;;;;;;4993575;28;20191;-87
2022/09/28 02:35:11;;;;;;;5.90;1.33;;;9.90;99.90;;;;;;5012565;28;20203;-87
2022/09/28 02:37:38;;;;;;;1.70;1.33;;;9.90;99.90;;;;;;4980444;28;20187;-87
2022/09/28 02:40:27;;;;;;;3.03;1.30;;;9.90;99.90;;;;;;4992621;28;20210;-87
2022/09/28 02:43:31;;;;;;;2.73;1.30;;;9.90;99.90;;;;;;5011714;28;20203;-87
2022/09/28 02:46:25;;;;;;;3.80;1.20;;;9.90;99.90;;;;;;4996653;28;20211;-88
2022/09/28 02:49:16;;;;;;;4.43;1.20;;;9.90;99.90;;;;;;4975528;28;20180;-87
2022/09/28 02:52:14;;;;;;;3.73;1.10;;;9.90;99.90;;;;;;4992076;28;20180;-87
2022/09/28 02:55:02;;;;;;;5.67;1.30;;;9.90;99.90;;;;;;4975370;28;20192;-87
2022/09/28 02:57:52;;;;;;;3.10;1.30;;;10.00;99.90;;;;;;4976610;28;20184;-87
2022/09/28 03:00:21;;;;;;;4.73;1.77;;;10.00;99.90;;;;;;4991812;28;20180;-87
2022/09/28 03:02:56;;;;;;;3.90;1.30;;;10.00;99.90;;;;;;4979052;28;20218;-88
2022/09/28 03:05:32;;;;;;;3.47;1.50;;;10.00;99.90;;;;;;4979367;28;20195;-87
2022/09/28 03:08:06;;;;;;;2.70;1.30;;;10.00;99.90;;;;;;4995208;28;20171;-87
2022/09/28 03:10:45;;;;;;;4.37;1.43;;;10.00;99.90;;;;;;4979026;28;20233;-87
2022/09/28 03:13:13;;;;;;;2.43;1.33;;;10.00;99.90;;;;;;4975670;28;20187;-88
2022/09/28 03:15:40;;;;;;;3.93;1.23;;;10.00;99.90;;;;;;4996837;28;20199;-88
2022/09/28 03:18:07;;;;;;;2.53;1.20;;;10.00;99.90;;;;;;4991689;28;20275;-87
2022/09/28 03:20:33;;;;;;;2.63;1.20;;;10.00;99.90;;;;;;4996769;28;20199;-87
2022/09/28 03:23:01;;;;;;;2.30;1.10;;;10.00;99.90;;;;;;5011150;28;20241;-87
2022/09/28 03:25:27;;;;;;;2.73;0.90;;;10.00;99.90;;;;;;4978060;28;20199;-87
2022/09/28 03:27:53;;;;;;;5.07;1.10;;;10.00;99.90;;;;;;4977873;28;20226;-87
2022/09/28 03:30:19;;;;;;;2.57;1.10;;;10.00;99.90;;;;;;4978361;28;20237;-87
2022/09/28 03:32:46;;;;;;;3.27;1.33;;;10.00;99.90;;;;;;5010626;28;20187;-88
2022/09/28 03:35:12;;;;;;;2.30;1.20;;;10.00;99.90;;;;;;4977948;28;20203;-88
2022/09/28 03:37:38;;;;;;;1.53;1.20;;;10.00;99.90;;;;;;4977977;28;20207;-87
2022/09/28 03:40:05;;;;;;;1.60;0.80;;;10.00;99.90;;;;;;4977918;28;20181;-87
2022/09/28 03:42:35;;;;;;;1.47;1.10;;;10.00;99.90;;;;;;4978707;28;20202;-90
2022/09/28 03:45:02;;;;;;;3.57;1.00;;;10.00;99.90;;;;;;4987770;28;20190;-89
2022/09/28 03:47:28;;;;;;;3.13;1.10;;;10.00;99.90;;;;;;4994879;28;20215;-89
2022/09/28 03:49:56;;;;;;;6.93;1.53;;;10.00;99.90;;;;;;4993410;28;20271;-89
2022/09/28 03:52:22;;;;;;;2.17;1.10;;;10.00;99.90;;;;;;4993084;28;20203;-89
2022/09/28 03:54:48;;;;;;;3.57;1.47;;;10.00;99.90;;;;;;4992944;28;20266;-89
2022/09/28 03:57:15;;;;;;;2.93;0.90;;;10.00;99.90;;;;;;5009277;28;20183;-88
2022/09/28 03:59:41;;;;;;;3.53;1.07;;;10.00;99.90;;;;;;4978737;28;20643;-88
2022/09/28 04:02:07;;;;;;;2.20;1.33;;;10.10;99.90;;;;;;4977068;28;20171;-89
2022/09/28 04:04:33;;;;;;;4.27;1.20;;;10.10;99.90;;;;;;4977585;28;20183;-88
2022/09/28 04:06:58;;;;;;;2.63;0.97;;;10.10;99.90;;;;;;4983840;28;20195;-89
2022/09/28 04:09:25;;;;;;;2.47;1.00;;;10.10;99.90;;;;;;4993419;28;20261;-88
2022/09/28 04:11:53;;;;;;;2.93;1.30;;;10.10;99.90;;;;;;4988228;28;20183;-89
2022/09/28 04:14:19;;;;;;;3.23;1.20;;;10.10;99.90;;;;;;4977694;28;20217;-88
2022/09/28 04:16:46;;;;;;;3.73;1.20;;;10.10;99.90;;;;;;4977362;28;20238;-88
2022/09/28 04:19:14;;;;;;;3.67;1.10;;;10.10;99.90;;;;;;4977702;28;20187;-88
2022/09/28 04:22:03;;;;;;;2.20;0.90;;;10.10;99.90;;;;;;5007598;28;20326;-88
2022/09/28 04:24:30;;;;;;;2.33;0.93;;;10.10;99.90;;;;;;4977406;28;20207;-88
2022/09/28 04:29:14;;;;;;;2.50;0.90;;;10.10;99.90;;;;;;4977118;28;20199;-88
2022/09/28 04:29:42;;;;;;;0.80;0.60;;;10.10;99.90;;;;;;4993154;28;20180;-89
2022/09/28 04:32:10;;;;;;;1.93;0.80;;;10.10;99.90;;;;;;5009691;28;20175;-88
2022/09/28 04:34:37;;;;;;;2.00;0.80;;;10.10;99.90;;;;;;4981002;28;20176;-88
2022/09/28 04:37:04;;;;;;;1.67;1.00;;;10.10;99.90;;;;;;4977229;28;20833;-88
2022/09/28 04:39:30;;;;;;;1.47;0.90;;;10.10;99.90;;;;;;4973748;28;20212;-89
2022/09/28 04:41:56;;;;;;;1.30;0.90;;;10.10;99.90;;;;;;4983315;28;20739;-87
2022/09/28 04:44:22;;;;;;;1.97;0.63;;;10.10;99.90;;;;;;4977044;28;20207;-88
2022/09/28 04:46:50;;;;;;;1.17;0.70;;;10.00;99.90;;;;;;4977051;28;20293;-87
2022/09/28 04:49:42;;;;;;;0.70;0.70;;;10.00;99.90;;;;;;4993332;28;20229;-87
2022/09/28 04:52:12;;;;;;;1.17;0.60;;;10.10;99.90;;;;;;4993285;28;20686;-87
2022/09/28 04:54:38;;;;;;;0.70;0.70;;;10.00;99.90;;;;;;4977115;28;20261;-87
2022/09/28 04:57:05;;;;;;;0.90;0.60;;;10.10;99.90;;;;;;4958002;28;20272;-87
2022/09/28 04:59:32;;;;;;;0.70;0.70;;;10.00;99.90;;;;;;4990001;28;20184;-87
2022/09/28 05:01:59;;;;;;;1.70;0.90;;;10.00;99.90;;;;;;4976234;28;20179;-85
2022/09/28 05:04:30;;;;;;;3.00;2.80;;;10.00;99.90;;;;;;4994328;28;20686;-87
2022/09/28 05:07:23;;;;;;;3.17;1.27;;;10.00;99.90;;;;;;4980923;28;20191;-87
2022/09/28 05:09:49;;;;;;;1.07;0.80;;;10.00;99.90;;;;;;4992945;28;20210;-87
2022/09/28 05:12:15;;;;;;;1.97;1.10;;;10.00;99.90;;;;;;4977707;28;20185;-87
2022/09/28 05:14:41;;;;;;;1.50;1.10;;;10.00;99.90;;;;;;4977147;28;20179;-87
2022/09/28 05:17:09;;;;;;;1.47;1.00;;;10.00;99.90;;;;;;4977124;28;20179;-87
2022/09/28 05:19:55;;;;;;;1.80;1.00;;;10.00;99.90;;;;;;4979815;28;20185;-87
2022/09/28 05:22:21;;;;;;;2.13;1.20;;;10.00;99.90;;;;;;4976181;28;20233;-88
2022/09/28 05:24:47;;;;;;;1.20;1.10;;;10.00;99.90;;;;;;4993245;28;20182;-89
2022/09/28 05:27:13;;;;;;;1.57;1.20;;;10.00;99.90;;;;;;4998991;28;20171;-87
2022/09/28 05:29:39;;;;;;;3.30;1.50;;;10.00;99.90;;;;;;5015402;28;20651;-87
2022/09/28 05:32:43;;;;;;;3.80;2.60;;;10.00;99.90;;;;;;5001981;28;20179;-87
2022/09/28 05:35:41;;;;;;;2.00;1.60;;;10.00;99.90;;;;;;4984653;28;20203;-87
2022/09/28 05:38:06;;;;;;;1.77;1.57;;;10.00;99.90;;;;;;4997093;28;20187;-87
2022/09/28 05:40:32;;;;;;;2.87;1.53;;;10.00;99.90;;;;;;5013932;28;20525;-87
2022/09/28 05:43:00;;;;;;;1.63;1.30;;;10.00;99.90;;;;;;4980909;28;20203;-87
2022/09/28 05:45:28;;;;;;;1.83;1.50;;;10.00;99.90;;;;;;4999200;28;20202;-87
2022/09/28 05:47:55;;;;;;;1.73;1.60;;;10.00;99.90;;;;;;4997938;28;20317;-87
2022/09/28 05:50:22;;;;;;;3.63;2.07;;;10.00;99.90;;;;;;4978804;28;20204;-87
2022/09/28 05:52:57;;;;;;;2.30;1.90;;;10.00;99.90;;;;;;4978873;28;20180;-88
2022/09/28 05:55:23;;;;;;;4.00;3.00;;;10.00;99.90;;;;;;5011930;28;20199;-87
2022/09/28 05:57:49;;;;;;;9.63;5.40;;;10.00;99.90;;;;;;4981941;28;20435;-88
2022/09/28 06:00:17;;;;;;;10.03;5.90;;;10.00;99.90;;;;;;4982596;28;20190;-87
2022/09/28 06:03:05;;;;;;;12.00;7.47;;;10.10;99.90;;;;;;4983196;28;20291;-87
2022/09/28 06:05:37;;;;;;;6.90;5.53;;;10.10;99.90;;;;;;5023968;28;20227;-88
2022/09/28 06:08:05;;;;;;;4.50;4.10;;;10.10;99.90;;;;;;5013743;28;20191;-88
2022/09/28 06:10:31;;;;;;;3.53;3.20;;;10.10;99.90;;;;;;4981470;28;20184;-87
2022/09/28 06:13:00;;;;;;;3.10;1.90;;;10.10;99.90;;;;;;4981425;28;20229;-87
2022/09/28 06:15:35;;;;;;;2.13;1.40;;;10.10;99.90;;;;;;5025029;28;20254;-87
2022/09/28 06:18:14;;;;;;;3.20;1.10;;;10.10;99.90;;;;;;4995539;28;20938;-87
2022/09/28 06:20:55;;;;;;;2.33;1.40;;;10.10;99.90;;;;;;4994577;28;20196;-87
2022/09/28 06:23:35;;;;;;;1.83;1.20;;;10.10;99.90;;;;;;4994017;28;20203;-87
2022/09/28 06:26:04;;;;;;;1.43;1.00;;;10.00;99.90;;;;;;4980055;28;20195;-87
2022/09/28 06:28:49;;;;;;;3.33;1.03;;;10.00;99.90;;;;;;4998472;28;20179;-87
2022/09/28 06:31:15;;;;;;;1.33;1.00;;;10.00;99.90;;;;;;4979704;28;20180;-87
2022/09/28 06:33:48;;;;;;;1.53;0.80;;;10.00;99.90;;;;;;4978964;28;20203;-87
2022/09/28 06:36:14;;;;;;;2.17;0.77;;;10.00;99.90;;;;;;4979839;28;20249;-87
2022/09/28 06:38:41;;;;;;;1.73;0.77;;;10.00;99.90;;;;;;5004593;28;20210;-87
2022/09/28 06:41:09;;;;;;;2.00;1.10;;;10.00;99.90;;;;;;4998798;28;20233;-87
2022/09/28 06:43:38;;;;;;;3.23;0.97;;;10.00;99.90;;;;;;4980634;28;20231;-87
2022/09/28 06:46:24;;;;;;;1.90;0.77;;;10.10;99.90;;;;;;4989736;28;20225;-87
2022/09/28 06:48:50;;;;;;;2.33;0.73;;;10.10;99.90;;;;;;4995067;28;20262;-87
2022/09/28 06:51:36;;;;;;;0.63;0.60;;;10.10;99.90;;;;;;4995284;28;20209;-86
2022/09/28 06:54:18;;;;;;;1.17;1.07;;;10.10;99.90;;;;;;4975729;28;20204;-87
2022/09/28 06:57:13;;;;;;;2.27;1.87;;;10.20;99.90;;;;;;4980598;28;20184;-87
2022/09/28 06:59:41;;;;;;;3.57;2.47;;;10.20;99.90;;;;;;4977802;28;20180;-87
2022/09/28 07:02:13;;;;;;;2.40;1.60;;;10.20;99.90;;;;;;4995269;28;20262;-87
2022/09/28 07:05:07;;;;;;;2.30;1.80;;;10.30;99.90;;;;;;4996423;28;20203;-87
2022/09/28 07:07:58;;;;;;;1.50;1.40;;;10.30;99.90;;;;;;4975318;28;20238;-87
2022/09/28 07:10:57;;;;;;;1.30;1.20;;;10.40;99.90;;;;;;4988088;28;20290;-87
2022/09/28 07:13:41;;;;;;;1.03;0.93;;;10.40;99.90;;;;;;4978903;28;20259;-87
2022/09/28 07:16:07;;;;;;;1.33;0.70;;;10.40;99.90;;;;;;4982677;28;20207;-87
2022/09/28 07:18:34;;;;;;;1.00;0.70;;;10.50;99.90;;;;;;5017705;28;20191;-87
2022/09/28 07:21:01;;;;;;;0.60;0.60;;;10.50;99.90;;;;;;4980036;28;20195;-87
2022/09/28 07:23:32;;;;;;;1.30;0.67;;;10.60;99.90;;;;;;4995277;28;20306;-87
2022/09/28 07:26:34;;;;;;;0.80;0.60;;;10.60;99.90;;;;;;5000639;28;20206;-87
2022/09/28 07:29:21;;;;;;;2.10;0.63;;;10.70;99.90;;;;;;4994299;28;20200;-87
2022/09/28 07:32:16;;;;;;;2.37;0.60;;;10.70;99.90;;;;;;4983141;28;20200;-87
2022/09/28 07:35:16;;;;;;;1.23;0.80;;;10.70;99.90;;;;;;5015259;28;20197;-87
2022/09/28 07:37:46;;;;;;;1.37;0.80;;;10.70;99.90;;;;;;4993879;28;20167;-87
2022/09/28 07:43:06;;;;;;;1.50;0.70;;;10.70;99.90;;;;;;4994205;28;20214;-86
2022/09/28 07:45:34;;;;;;;2.60;0.70;;;10.70;99.90;;;;;;4977041;28;20200;-87
2022/09/28 07:48:02;;;;;;;1.03;0.80;;;10.80;99.90;;;;;;4978062;28;20274;-87
2022/09/28 07:50:55;;;;;;;1.13;1.07;;;10.80;99.90;;;;;;4997206;28;20199;-87
2022/09/28 07:53:32;;;;;;;2.43;1.20;;;10.90;99.90;;;;;;5001585;28;20182;-87
2022/09/28 07:56:25;;;;;;;2.60;1.37;;;10.90;99.90;;;;;;4975218;28;20269;-87
2022/09/28 07:59:17;;;;;;;1.70;1.10;;;10.90;99.90;;;;;;5018688;28;20251;-87
2022/09/28 08:02:19;;;;;;;1.53;1.00;;;10.90;99.90;;;;;;4989643;28;20190;-87
2022/09/28 08:04:55;;;;;;;2.13;1.10;;;10.80;99.90;;;;;;4979529;28;20188;-87
2022/09/28 08:07:22;;;;;;;1.70;1.43;;;10.80;99.90;;;;;;4980946;28;20191;-87
2022/09/28 08:09:55;;;;;;;1.40;0.90;;;10.80;99.90;;;;;;5012922;28;20197;-87
2022/09/28 08:12:27;;;;;;;0.70;0.70;;;10.80;99.90;;;;;;5014252;28;20206;-87
2022/09/28 08:15:03;;;;;;;0.97;0.87;;;10.80;99.90;;;;;;4995271;28;20332;-87
2022/09/28 08:17:47;;;;;;;0.83;0.80;;;10.80;99.90;;;;;;4979964;28;20185;-87
2022/09/28 08:23:07;;;;;;;3.07;1.47;;;10.80;99.90;;;;;;4994726;28;20470;-87
2022/09/28 08:25:37;;;;;;;1.40;0.90;;;10.80;99.90;;;;;;4980009;28;20201;-87
2022/09/28 08:28:08;;;;;;;1.50;1.30;;;10.80;99.90;;;;;;5011327;28;20211;-87
2022/09/28 08:30:42;;;;;;;6.97;4.07;;;10.80;99.90;;;;;;5007744;28;20181;-87
2022/09/28 08:33:27;;;;;;;7.80;4.97;;;10.80;99.90;;;;;;4991971;28;20234;-87
2022/09/28 08:36:12;;;;;;;7.73;4.93;;;10.90;99.90;;;;;;4996651;28;20358;-87
2022/09/28 08:39:08;;;;;;;6.50;3.57;;;10.90;99.90;;;;;;4995383;28;20191;-87
2022/09/28 08:42:15;;;;;;;6.63;4.30;;;11.00;99.90;;;;;;4994231;28;20196;-87
2022/09/28 08:45:25;;;;;;;15.33;8.90;;;11.10;99.90;;;;;;4989933;28;20271;-87
2022/09/28 08:51:51;;;;;;;3.67;2.50;;;11.20;99.90;;;;;;5012003;28;20281;-86
2022/09/28 08:54:41;;;;;;;3.27;1.50;;;11.20;99.90;;;;;;4971675;28;20201;-86
2022/09/28 08:57:17;;;;;;;2.03;1.20;;;11.30;99.90;;;;;;5014244;28;20189;-87
2022/09/28 08:59:51;;;;;;;2.17;1.40;;;11.30;99.90;;;;;;4981832;28;20559;-87
2022/09/28 09:02:34;;;;;;;3.33;1.50;;;11.40;99.90;;;;;;4982038;28;20678;-87
2022/09/28 09:05:34;;;;;;;3.10;1.50;;;11.40;99.90;;;;;;4999271;28;20203;-87
2022/09/28 09:08:30;;;;;;;4.50;1.77;;;11.40;99.90;;;;;;4997459;28;20239;-87
2022/09/28 09:11:01;;;;;;;3.60;1.20;;;11.50;99.90;;;;;;4981056;28;20182;-87
2022/09/28 09:13:53;;;;;;;2.60;1.20;;;11.60;99.90;;;;;;5014566;28;20262;-87
2022/09/28 09:16:58;;;;;;;2.27;1.40;;;11.60;99.90;;;;;;5014188;28;20261;-87
2022/09/28 09:20:04;;;;;;;1.50;1.10;;;11.70;99.90;;;;;;5012545;28;20185;-87
2022/09/28 09:23:06;;;;;;;3.10;1.30;;;11.70;99.90;;;;;;4996730;28;20206;-87
2022/09/28 09:25:37;;;;;;;4.27;1.37;;;11.70;99.90;;;;;;4996883;28;20199;-87
2022/09/28 09:28:49;;;;;;;3.47;1.40;;;11.70;99.90;;;;;;4997084;28;20178;-87
2022/09/28 09:31:51;;;;;;;3.03;1.53;;;11.80;99.90;;;;;;4963113;28;20275;-87
2022/09/28 09:34:20;;;;;;;4.57;1.70;;;11.90;99.90;;;;;;4996998;28;20193;-87
2022/09/28 09:37:23;;;;;;;2.00;1.20;;;11.90;99.90;;;;;;4979935;28;20192;-87
2022/09/28 09:40:26;;;;;;;3.37;1.23;;;11.90;99.90;;;;;;4984166;28;20210;-87
2022/09/28 09:43:34;;;;;;;4.73;1.70;;;12.00;99.90;;;;;;4998114;28;20221;-87
2022/09/28 09:46:46;;;;;;;3.90;1.80;;;12.00;99.90;;;;;;4993454;28;20300;-87
2022/09/28 09:49:19;;;;;;;1.60;1.50;;;12.00;99.90;;;;;;4993771;28;20182;-87
2022/09/28 09:51:55;;;;;;;1.70;1.00;;;12.00;99.90;;;;;;5010923;28;20209;-87
2022/09/28 09:54:30;;;;;;;3.40;1.10;;;12.00;99.90;;;;;;5013611;28;20185;-87
2022/09/28 09:57:03;;;;;;;4.10;1.40;;;12.00;99.90;;;;;;4980362;28;20301;-87
2022/09/28 10:00:04;;;;;;;1.77;1.10;;;12.10;99.90;;;;;;5013793;28;20266;-87
2022/09/28 10:02:59;;;;;;;3.43;1.70;;;12.10;99.90;;;;;;4983325;28;20214;-87
2022/09/28 10:05:38;;;;;;;2.40;1.30;;;12.30;99.90;;;;;;4980929;28;20201;-87
2022/09/28 10:08:26;;;;;;;2.27;1.20;;;12.30;99.90;;;;;;5016119;28;20183;-87
2022/09/28 10:11:06;;;;;;;2.43;1.10;;;12.30;99.90;;;;;;5033178;28;20248;-87
2022/09/28 10:13:43;;;;;;;4.17;1.13;;;12.40;99.90;;;;;;5018433;28;20269;-87
2022/09/28 10:16:39;;;;;;;2.13;0.97;;;12.50;99.90;;;;;;4999038;28;20268;-87
2022/09/28 10:19:12;;;;;;;2.77;1.10;;;12.50;99.90;;;;;;4982618;28;20174;-86
2022/09/28 10:22:01;;;;;;;2.60;0.93;;;12.50;99.90;;;;;;4999166;28;20297;-87
2022/09/28 10:24:39;;;;;;;2.37;1.07;;;12.60;99.90;;;;;;4997848;28;20207;-87
2022/09/28 10:27:14;;;;;;;3.33;1.10;;;12.80;99.90;;;;;;4997499;28;20171;-87
2022/09/28 10:30:09;;;;;;;3.50;1.10;;;12.80;99.90;;;;;;5012338;28;20179;-87
2022/09/28 10:32:38;;;;;;;2.13;1.20;;;12.90;99.90;;;;;;4990742;28;20296;-87
2022/09/28 10:35:13;;;;;;;1.77;0.97;;;13.00;99.90;;;;;;5013842;28;20199;-87
2022/09/28 10:38:13;;;;;;;2.57;1.10;;;13.10;99.90;;;;;;4997188;28;20177;-87
2022/09/28 10:40:59;;;;;;;2.67;1.03;;;13.20;99.90;;;;;;4994128;28;20184;-86
2022/09/28 10:43:38;;;;;;;1.60;1.20;;;13.10;99.90;;;;;;5014288;28;20214;-87
2022/09/28 10:46:20;;;;;;;3.80;1.10;;;13.10;99.90;;;;;;5014690;28;20203;-87
2022/09/28 10:49:10;;;;;;;3.37;1.40;;;13.20;99.90;;;;;;5012719;28;20191;-87
2022/09/28 10:51:46;;;;;;;2.93;1.20;;;13.20;99.90;;;;;;4997514;28;20186;-87
2022/09/28 10:54:22;;;;;;;1.90;0.90;;;13.30;99.90;;;;;;4997137;28;20220;-87
2022/09/28 10:56:52;;;;;;;3.87;1.10;;;13.30;99.90;;;;;;4981100;28;20203;-87
2022/09/28 10:59:45;;;;;;;2.67;1.23;;;13.40;99.90;;;;;;5024455;28;20172;-87
2022/09/28 11:02:40;;;;;;;2.40;1.00;;;13.50;99.90;;;;;;5014467;28;20187;-87
2022/09/28 11:05:21;;;;;;;2.03;1.00;;;13.50;99.90;;;;;;4982834;28;20208;-86
2022/09/28 11:07:48;;;;;;;2.50;1.03;;;13.60;99.90;;;;;;4979195;28;20178;-85
2022/09/28 11:10:25;;;;;;;2.03;0.97;;;13.60;99.90;;;;;;4986496;28;20206;-87
2022/09/28 11:12:54;;;;;;;6.47;1.87;;;13.60;99.90;;;;;;5016139;28;20174;-86
2022/09/28 11:15:33;;;;;;;0.80;0.80;;;13.70;99.90;;;;;;4991654;28;20202;-86
2022/09/28 11:18:24;;;;;;;1.80;0.80;;;13.60;99.90;;;;;;4993680;28;20279;-86
2022/09/28 11:21:14;;;;;;;2.30;1.00;;;13.70;99.90;;;;;;5031726;28;20221;-86
2022/09/28 11:24:04;;;;;;;7.30;3.90;;;13.70;99.90;;;;;;5012171;28;20298;-87
2022/09/28 11:26:39;;;;;;;2.47;1.47;;;13.50;99.90;;;;;;4980795;28;20200;-87
2022/09/28 11:29:21;;;;;;;3.40;1.27;;;13.50;99.90;;;;;;5030833;28;20189;-87
2022/09/28 11:32:00;;;;;;;2.77;1.00;;;13.60;99.90;;;;;;5034523;28;20214;-87
2022/09/28 11:34:34;;;;;;;1.63;1.00;;;13.50;99.90;;;;;;4978463;28;20250;-87
2022/09/28 11:37:21;;;;;;;2.03;1.00;;;13.60;99.90;;;;;;4994797;28;20178;-86
2022/09/28 11:40:35;;;;;;;3.13;1.00;;;13.60;99.90;;;;;;4983284;28;20187;-86
2022/09/28 11:43:23;;;;;;;5.50;1.03;;;13.50;99.90;;;;;;4975594;28;20224;-86
2022/09/28 11:46:46;;;;;;;4.60;1.33;;;13.50;99.90;;;;;;4974723;28;20214;-86
2022/09/28 11:49:44;;;;;;;3.90;1.00;;;13.40;99.90;;;;;;4951759;28;20332;-86
2022/09/28 11:52:28;;;;;;;1.40;1.10;;;13.50;99.90;;;;;;4945831;28;20188;-86
2022/09/28 11:55:05;;;;;;;2.77;1.00;;;13.50;99.90;;;;;;4976820;28;20191;-86
2022/09/28 11:57:38;;;;;;;1.37;0.90;;;13.50;99.90;;;;;;5029527;28;20181;-86
2022/09/28 12:00:10;;;;;;;5.97;2.67;;;13.60;99.90;;;;;;4978140;28;20183;-87
2022/09/28 12:02:54;;;;;;;3.57;1.63;;;13.70;99.90;;;;;;4995109;28;20179;-86
2022/09/28 12:05:31;;;;;;;3.37;1.07;;;13.60;99.90;;;;;;4995608;28;20234;-86
2022/09/28 12:08:07;;;;;;;1.97;1.10;;;13.60;99.90;;;;;;4997240;28;20182;-86
2022/09/28 12:11:22;;;;;;;2.30;1.07;;;13.70;99.90;;;;;;4968620;28;20185;-87
2022/09/28 12:14:27;;;;;;;2.33;0.90;;;13.70;99.90;;;;;;4952587;29;20192;-86
2022/09/28 12:17:08;;;;;;;1.83;1.00;;;13.80;99.90;;;;;;4971248;28;20214;-86
2022/09/28 12:19:46;;;;;;;2.63;1.40;;;13.80;99.90;;;;;;4977761;28;20187;-87
2022/09/28 12:22:22;;;;;;;1.50;1.00;;;13.80;99.90;;;;;;4992773;28;20191;-87
2022/09/28 12:24:53;;;;;;;2.07;0.87;;;13.80;99.90;;;;;;4977429;28;20237;-86
2022/09/28 12:27:59;;;;;;;2.80;1.47;;;13.70;99.90;;;;;;4979114;28;20175;-86
2022/09/28 12:30:31;;;;;;;2.87;1.63;;;13.60;99.90;;;;;;4989976;28;20282;-87
2022/09/28 12:33:12;;;;;;;2.87;1.60;;;13.60;99.90;;;;;;4990914;28;20183;-87
2022/09/28 12:35:41;;;;;;;2.30;1.10;;;13.60;99.90;;;;;;4968058;28;20233;-83
2022/09/28 12:38:20;;;;;;;2.30;1.30;;;13.60;99.90;;;;;;5009942;28;20250;-86
2022/09/28 12:41:26;;;;;;;3.10;0.90;;;13.50;99.90;;;;;;5008423;28;20270;-91
2022/09/28 12:44:19;;;;;;;3.07;1.03;;;13.50;99.90;;;;;;4990910;28;20390;-86
2022/09/28 12:46:54;;;;;;;3.57;1.13;;;13.40;99.90;;;;;;5007956;28;20245;-87
2022/09/28 12:49:28;;;;;;;2.10;0.90;;;13.40;99.90;;;;;;4974459;28;20270;-87
2022/09/28 12:51:59;;;;;;;2.30;1.03;;;13.50;99.90;;;;;;5011065;28;20188;-86
2022/09/28 12:54:43;;;;;;;2.30;1.10;;;13.50;99.90;;;;;;4988831;28;20661;-87
2022/09/28 12:57:40;;;;;;;4.07;1.30;;;13.50;99.90;;;;;;5035517;28;20190;-86
2022/09/28 13:00:21;;;;;;;2.43;1.40;;;13.60;99.90;;;;;;5021521;28;20214;-86
2022/09/28 13:03:10;;;;;;;2.60;1.10;;;13.70;99.90;;;;;;4995774;28;20211;-86
2022/09/28 13:05:55;;;;;;;2.70;1.20;;;13.60;99.90;;;;;;5012579;28;20269;-85
2022/09/28 13:09:00;;;;;;;2.77;1.13;;;13.60;99.90;;;;;;4994493;28;20171;-87
2022/09/28 13:12:01;;;;;;;2.50;1.40;;;13.70;99.90;;;;;;5027794;28;20167;-87
2022/09/28 13:14:29;;;;;;;1.77;0.90;;;13.70;99.90;;;;;;4994615;28;20262;-86
2022/09/28 13:17:24;;;;;;;1.53;0.87;;;13.70;99.90;;;;;;5012849;28;20294;-87
2022/09/28 13:19:56;;;;;;;2.13;1.00;;;13.70;99.90;;;;;;5016776;28;20183;-87
2022/09/28 13:22:27;;;;;;;1.93;1.07;;;13.70;99.90;;;;;;5000451;28;20193;-87
2022/09/28 13:24:57;;;;;;;2.93;1.00;;;13.70;99.90;;;;;;4999756;28;20207;-86
2022/09/28 13:27:40;;;;;;;2.17;1.00;;;13.70;99.90;;;;;;5015217;28;20177;-87
2022/09/28 13:30:07;;;;;;;1.80;0.93;;;13.70;99.90;;;;;;4991451;28;20210;-87
2022/09/28 13:32:35;;;;;;;3.73;1.10;;;13.70;99.90;;;;;;4976720;28;20194;-86
2022/09/28 13:35:01;;;;;;;2.30;1.07;;;13.70;99.90;;;;;;4977108;28;20219;-86
2022/09/28 13:37:28;;;;;;;2.30;1.40;;;13.60;99.90;;;;;;4976640;28;20184;-87
2022/09/28 13:39:57;;;;;;;2.07;1.03;;;13.70;99.90;;;;;;4973536;28;20180;-87
2022/09/28 13:42:44;;;;;;;3.03;1.10;;;13.70;99.90;;;;;;5011028;28;20193;-87
2022/09/28 13:45:19;;;;;;;3.63;0.90;;;13.70;99.90;;;;;;5016936;28;20229;-87
2022/09/28 13:47:57;;;;;;;1.57;0.93;;;13.80;99.90;;;;;;4995908;28;20179;-87
2022/09/28 13:50:37;;;;;;;3.37;1.20;;;13.70;99.90;;;;;;5009563;28;20191;-87
2022/09/28 13:53:31;;;;;;;4.20;1.90;;;13.80;99.90;;;;;;4979834;28;20274;-87
2022/09/28 13:56:34;;;;;;;2.53;1.83;;;13.80;99.90;;;;;;4977057;28;20210;-87